Time;durP1;ratioP1;P1;durP2;ratioP2;P2;SDS_P1;SDS_P2;PMS_P1;PMS_P2;Temp;Humidity;BMP_temperature;BMP_pressure;BME280_temperature;BME280_humidity;BME280_pressure;Samples;Min_cycle;Max_cycle;Signal;HPM_P1;HPM_P2
2023/07/19 00:01:51;;;;;;;11.77;3.87;;;;;;;26.68;46.33;101058.25;6306342;22;20345;-77
2023/07/19 00:04:16;;;;;;;9.53;4.10;;;;;;;26.75;45.98;101055.28;6308387;22;20399;-77
2023/07/19 00:06:41;;;;;;;9.05;4.32;;;;;;;26.77;46.25;101074.06;6305368;22;20329;-76
2023/07/19 00:09:07;;;;;;;9.52;4.03;;;;;;;26.77;46.14;101065.91;6305312;22;20728;-77
2023/07/19 00:11:32;;;;;;;9.67;4.10;;;;;;;26.77;45.86;101055.84;6305710;22;20342;-77
2023/07/19 00:13:58;;;;;;;9.10;3.80;;;;;;;26.78;45.83;101057.47;6305956;22;21068;-77
2023/07/19 00:16:23;;;;;;;8.97;3.97;;;;;;;26.76;45.98;101070.53;6306920;22;20767;-77
2023/07/19 00:18:49;;;;;;;11.13;4.28;;;;;;;26.73;46.11;101062.09;6307066;22;20341;-76
2023/07/19 00:21:14;;;;;;;10.87;4.10;;;;;;;26.76;45.98;101059.66;6308113;22;20813;-77
2023/07/19 00:23:40;;;;;;;9.80;4.43;;;;;;;26.85;45.73;101052.59;6311458;22;20337;-77
2023/07/19 00:26:05;;;;;;;8.17;4.13;;;;;;;26.69;46.35;101062.63;6309429;22;20690;-76
2023/07/19 00:28:31;;;;;;;10.33;4.20;;;;;;;26.65;46.05;101049.84;6306073;22;20837;-76
2023/07/19 00:31:03;;;;;;;9.00;4.20;;;;;;;26.62;46.45;101053.13;6306337;22;20338;-76
2023/07/19 00:33:30;;;;;;;12.38;4.35;;;;;;;26.49;46.64;101049.78;6278801;22;20381;-77
2023/07/19 00:35:55;;;;;;;7.45;3.95;;;;;;;26.42;47.06;101053.84;6305534;22;20338;-77
2023/07/19 00:38:21;;;;;;;10.27;4.30;;;;;;;26.45;46.65;101047.88;6304932;22;20344;-78
2023/07/19 00:40:48;;;;;;;8.20;4.00;;;;;;;26.51;46.42;101041.38;6305429;22;20380;-77
2023/07/19 00:43:14;;;;;;;10.55;4.40;;;;;;;26.59;46.75;101056.34;6305693;22;20346;-78
2023/07/19 00:45:53;;;;;;;7.70;3.93;;;;;;;26.65;46.05;101044.41;6278875;22;20399;-76
2023/07/19 00:48:18;;;;;;;8.35;4.20;;;;;;;26.79;45.79;101042.78;6305409;22;20365;-77
2023/07/19 00:50:45;;;;;;;8.47;4.10;;;;;;;26.85;45.58;101039.00;6306398;22;20334;-78
2023/07/19 00:53:11;;;;;;;11.85;3.85;;;;;;;26.85;45.56;101043.63;6306460;22;20361;-78
2023/07/19 00:55:38;;;;;;;9.45;3.95;;;;;;;26.80;45.57;101052.59;6306633;22;20361;-77
2023/07/19 00:58:04;;;;;;;9.93;3.77;;;;;;;26.87;45.62;101038.72;6305280;22;20362;-77
2023/07/19 01:00:30;;;;;;;8.68;4.00;;;;;;;26.89;45.27;101031.91;6305367;22;20342;-77
2023/07/19 01:02:55;;;;;;;8.70;3.95;;;;;;;26.89;45.19;101031.91;6305814;22;20338;-77
2023/07/19 01:05:21;;;;;;;10.17;4.07;;;;;;;26.78;45.67;101027.56;6305508;22;20337;-77
2023/07/19 01:07:46;;;;;;;9.07;4.00;;;;;;;26.72;45.59;101016.94;6305116;22;20427;-77
2023/07/19 01:10:13;;;;;;;9.13;3.97;;;;;;;26.70;45.64;101009.88;6305711;22;20342;-76
2023/07/19 01:12:38;;;;;;;10.15;3.92;;;;;;;26.59;46.10;100999.22;6278321;22;20353;-77
2023/07/19 01:15:08;;;;;;;8.35;3.70;;;;;;;26.52;46.40;101004.94;6305090;22;20342;-77
2023/07/19 01:17:34;;;;;;;7.68;3.70;;;;;;;26.55;46.02;101001.69;6305058;22;20330;-77
2023/07/19 01:20:00;;;;;;;6.03;3.50;;;;;;;26.54;46.44;101004.66;6304767;22;20517;-77
2023/07/19 01:22:35;;;;;;;8.20;3.90;;;;;;;26.62;46.08;101001.44;6304823;22;20368;-77
2023/07/19 01:25:00;;;;;;;8.20;3.40;;;;;;;26.62;45.86;101001.44;6305083;22;20349;-77
2023/07/19 01:27:26;;;;;;;7.63;3.53;;;;;;;26.72;45.51;101003.34;6304985;22;20334;-77
2023/07/19 01:29:51;;;;;;;7.25;3.45;;;;;;;26.77;45.62;100990.56;6305108;22;20346;-77
2023/07/19 01:32:17;;;;;;;7.28;3.55;;;;;;;26.78;45.35;100994.13;6305977;22;20357;-76
2023/07/19 01:34:43;;;;;;;5.88;3.40;;;;;;;26.80;45.11;100995.47;6310369;22;20678;-78
2023/07/19 01:37:08;;;;;;;5.87;3.43;;;;;;;26.77;45.50;101000.63;6306411;22;20337;-78
2023/07/19 01:39:34;;;;;;;6.57;3.42;;;;;;;26.59;45.84;100999.22;6278781;22;20346;-78
2023/07/19 01:42:00;;;;;;;6.55;3.20;;;;;;;26.48;46.19;101010.09;6306545;22;20394;-78
2023/07/19 01:44:26;;;;;;;7.27;3.43;;;;;;;26.33;46.54;101010.88;6306733;22;20349;-77
2023/07/19 01:46:51;;;;;;;6.10;3.40;;;;;;;26.26;46.98;101015.75;6305440;22;20393;-77
2023/07/19 01:49:17;;;;;;;6.38;3.65;;;;;;;26.21;47.03;101010.31;6304907;22;20362;-78
2023/07/19 01:51:42;;;;;;;6.80;3.40;;;;;;;26.09;47.37;101009.72;6312899;22;20426;-78
2023/07/19 01:54:08;;;;;;;7.00;3.27;;;;;;;25.99;47.56;101012.41;6308769;22;20353;-78
2023/07/19 01:56:33;;;;;;;8.43;3.77;;;;;;;25.93;47.79;101009.69;6308517;22;20337;-77
2023/07/19 01:58:59;;;;;;;8.77;3.95;;;;;;;25.89;47.79;101003.13;6281009;22;20349;-77
2023/07/19 02:01:24;;;;;;;10.88;3.50;;;;;;;25.93;47.76;101004.25;6307712;22;20810;-77
2023/07/19 02:03:50;;;;;;;7.23;3.23;;;;;;;25.90;47.90;101002.03;6306992;22;20360;-77
2023/07/19 02:06:15;;;;;;;6.60;3.57;;;;;;;25.97;47.47;100990.94;6303936;22;20330;-77
2023/07/19 02:08:41;;;;;;;5.90;3.20;;;;;;;26.05;47.24;100992.31;6298556;22;20430;-78
2023/07/19 02:11:06;;;;;;;8.25;3.75;;;;;;;26.10;47.16;100995.88;6304779;22;20814;-77
2023/07/19 02:13:31;;;;;;;7.87;3.53;;;;;;;26.06;47.09;100991.25;6304021;22;20418;-78
2023/07/19 02:15:57;;;;;;;7.00;3.33;;;;;;;26.01;47.45;100978.47;6305722;22;20341;-76
2023/07/19 02:18:22;;;;;;;6.67;3.60;;;;;;;26.09;46.96;100977.94;6303758;22;20334;-76
2023/07/19 02:20:50;;;;;;;6.30;3.50;;;;;;;26.14;46.95;100968.97;6305305;22;20767;-77
2023/07/19 02:23:18;;;;;;;8.68;3.60;;;;;;;26.11;46.82;100964.91;6307307;22;20338;-77
2023/07/19 02:25:46;;;;;;;7.13;3.47;;;;;;;26.13;47.05;100970.88;6307101;22;20338;-77
2023/07/19 02:28:12;;;;;;;7.47;3.53;;;;;;;26.10;46.82;100963.25;6306988;22;20366;-77
2023/07/19 02:30:45;;;;;;;7.43;3.80;;;;;;;26.28;46.26;100953.78;6307246;22;20341;-78
2023/07/19 02:33:11;;;;;;;7.57;4.00;;;;;;;26.37;46.04;100956.00;6307265;22;20705;-78
2023/07/19 02:35:37;;;;;;;7.03;3.75;;;;;;;26.40;46.02;100963.59;6307335;22;20345;-78
2023/07/19 02:38:02;;;;;;;7.07;3.60;;;;;;;26.42;45.88;100956.00;6280723;22;20334;-77
2023/07/19 02:40:28;;;;;;;11.03;6.53;;;;;;;26.42;45.92;100951.38;6307631;22;20400;-77
2023/07/19 02:42:53;;;;;;;7.88;3.63;;;;;;;26.43;45.83;100950.28;6311678;22;20338;-77
2023/07/19 02:45:19;;;;;;;7.90;3.43;;;;;;;26.43;45.77;100944.84;6309479;22;20338;-77
2023/07/19 02:47:44;;;;;;;6.43;3.43;;;;;;;26.45;45.85;100952.72;6306846;22;20366;-77
2023/07/19 02:50:10;;;;;;;5.90;3.60;;;;;;;26.45;45.77;100955.44;6307374;22;20360;-77
2023/07/19 02:52:36;;;;;;;12.07;3.90;;;;;;;26.50;45.56;100958.97;6306652;22;20403;-77
2023/07/19 02:55:01;;;;;;;7.80;3.73;;;;;;;26.50;45.69;100947.28;6306604;22;20333;-76
2023/07/19 02:57:26;;;;;;;14.07;4.13;;;;;;;26.45;45.78;100945.41;6279420;22;20443;-76
2023/07/19 02:59:52;;;;;;;7.93;3.70;;;;;;;26.45;45.41;100955.44;6307112;22;20437;-76
2023/07/19 03:02:17;;;;;;;10.80;3.80;;;;;;;26.51;45.68;100962.53;6306000;22;20349;-76
2023/07/19 03:04:43;;;;;;;9.30;3.63;;;;;;;26.46;45.81;100948.94;6306525;22;20345;-77
2023/07/19 03:07:08;;;;;;;8.87;3.87;;;;;;;26.46;45.60;100948.94;6306644;22;20338;-77
2023/07/19 03:09:34;;;;;;;5.53;3.60;;;;;;;26.44;45.64;100957.34;6308040;22;20833;-76
2023/07/19 03:11:59;;;;;;;8.95;4.30;;;;;;;26.44;45.70;100959.25;6307852;22;20356;-78
2023/07/19 03:14:25;;;;;;;10.03;4.27;;;;;;;26.45;45.82;100950.00;6310790;22;20341;-78
2023/07/19 03:16:50;;;;;;;9.50;4.10;;;;;;;26.51;45.84;100951.66;6309886;22;20417;-77
2023/07/19 03:19:16;;;;;;;9.30;3.90;;;;;;;26.49;46.16;100943.75;6307631;22;20333;-77
2023/07/19 03:21:41;;;;;;;9.38;3.63;;;;;;;26.47;46.06;100936.94;6309904;22;20336;-77
2023/07/19 03:24:08;;;;;;;6.55;3.47;;;;;;;26.46;46.30;100935.34;6312330;22;20924;-77
2023/07/19 03:26:34;;;;;;;9.15;3.83;;;;;;;26.52;47.04;100936.97;6308344;22;20330;-78
2023/07/19 03:28:59;;;;;;;10.43;4.23;;;;;;;26.57;47.03;100930.72;6307796;22;20376;-79
2023/07/19 03:31:25;;;;;;;10.30;4.37;;;;;;;26.56;47.28;100915.47;6307412;22;20372;-77
2023/07/19 03:33:50;;;;;;;7.80;3.90;;;;;;;26.56;46.89;100912.75;6280501;22;20341;-77
2023/07/19 03:36:16;;;;;;;7.67;3.93;;;;;;;26.60;47.20;100909.25;6307417;22;20334;-77
2023/07/19 03:38:41;;;;;;;8.20;4.10;;;;;;;26.69;47.06;100904.09;6308743;22;20358;-78
2023/07/19 03:41:08;;;;;;;11.47;4.50;;;;;;;26.62;47.04;100907.09;6312930;22;20773;-78
2023/07/19 03:43:35;;;;;;;9.57;4.30;;;;;;;26.57;46.62;100907.06;6307309;22;20334;-76
2023/07/19 03:46:00;;;;;;;9.33;4.20;;;;;;;26.55;47.02;100897.56;6306654;22;20790;-77
2023/07/19 03:48:26;;;;;;;7.60;3.45;;;;;;;26.64;46.57;100904.91;6279655;22;20365;-77
2023/07/19 03:51:01;;;;;;;7.60;3.93;;;;;;;26.74;46.30;100901.38;6307202;22;20352;-77
2023/07/19 03:53:28;;;;;;;6.70;3.70;;;;;;;26.67;46.41;100901.66;6307094;22;20418;-77
2023/07/19 03:55:57;;;;;;;7.73;3.90;;;;;;;26.64;46.96;100899.47;6279974;22;20811;-77
2023/07/19 03:58:26;;;;;;;9.80;4.40;;;;;;;26.83;46.66;100918.78;6306516;22;20442;-76
2023/07/19 04:00:57;;;;;;;8.97;3.60;;;;;;;26.99;46.45;100907.84;6305125;22;20346;-77
2023/07/19 04:03:24;;;;;;;8.77;4.15;;;;;;;27.10;46.25;100912.19;6305527;22;20338;-77
2023/07/19 04:05:50;;;;;;;7.38;3.80;;;;;;;27.14;45.43;100907.03;6305840;22;20459;-77
2023/07/19 04:08:16;;;;;;;7.57;3.83;;;;;;;27.28;46.02;100921.69;6304291;22;20405;-77
2023/07/19 04:10:43;;;;;;;9.52;3.67;;;;;;;27.46;45.39;100923.00;6305629;22;20857;-77
2023/07/19 04:13:13;;;;;;;10.13;4.22;;;;;;;27.51;45.12;100922.16;6278094;22;20631;-76
2023/07/19 04:15:39;;;;;;;8.60;4.20;;;;;;;27.42;45.60;100924.63;6305360;22;20794;-77
2023/07/19 04:18:05;;;;;;;9.93;4.38;;;;;;;27.52;45.82;100918.34;6306408;22;20330;-78
2023/07/19 04:20:31;;;;;;;10.60;4.93;;;;;;;27.65;45.90;100899.47;6307625;22;20671;-77
2023/07/19 04:22:57;;;;;;;14.73;5.50;;;;;;;27.82;45.88;100901.84;6308682;22;20794;-78
2023/07/19 04:25:24;;;;;;;12.30;5.75;;;;;;;27.78;46.11;100906.22;6307596;22;20382;-77
2023/07/19 04:27:53;;;;;;;12.90;5.67;;;;;;;27.88;46.28;100904.53;6306295;22;20389;-76
2023/07/19 04:30:19;;;;;;;11.18;5.72;;;;;;;27.94;45.92;100912.41;6305530;22;20369;-77
2023/07/19 04:32:45;;;;;;;12.23;5.80;;;;;;;28.03;46.17;100915.38;6305711;22;20342;-76
2023/07/19 04:35:10;;;;;;;11.07;5.20;;;;;;;28.03;45.98;100921.63;6305696;22;20338;-76
2023/07/19 04:37:38;;;;;;;9.57;5.40;;;;;;;28.14;46.11;100937.91;6305629;22;20407;-76
2023/07/19 04:40:06;;;;;;;9.38;5.13;;;;;;;28.17;45.87;100940.88;6305664;22;20334;-76
2023/07/19 04:42:31;;;;;;;11.27;5.63;;;;;;;28.38;46.25;100929.84;6279474;22;20361;-76
2023/07/19 04:44:57;;;;;;;9.77;6.30;;;;;;;28.49;46.72;100936.84;6305690;22;20338;-76
2023/07/19 04:47:22;;;;;;;10.00;5.30;;;;;;;28.64;47.27;100941.38;6306051;22;20353;-77
2023/07/19 04:49:48;;;;;;;10.70;6.33;;;;;;;28.68;46.83;100941.63;6278697;22;20369;-76
2023/07/19 04:52:13;;;;;;;11.63;6.13;;;;;;;28.62;46.86;100940.84;6306148;22;20337;-75
2023/07/19 04:54:39;;;;;;;11.63;6.45;;;;;;;28.53;46.36;100937.09;6280271;22;20346;-77
2023/07/19 04:57:05;;;;;;;11.65;5.90;;;;;;;28.86;45.86;100931.91;6306694;22;20508;-77
2023/07/19 04:59:30;;;;;;;13.27;6.35;;;;;;;29.00;45.00;100932.84;6278905;22;20411;-77
2023/07/19 05:01:57;;;;;;;12.65;6.22;;;;;;;28.98;44.48;100933.16;6305952;22;20364;-76
2023/07/19 05:04:22;;;;;;;15.70;6.13;;;;;;;28.86;44.64;100929.19;6305713;22;20826;-77
2023/07/19 05:06:49;;;;;;;16.03;5.60;;;;;;;28.74;44.66;100919.47;6306048;22;20427;-76
2023/07/19 05:09:16;;;;;;;11.85;5.40;;;;;;;28.84;44.68;100924.00;6279222;22;20405;-77
2023/07/19 05:11:41;;;;;;;19.23;5.45;;;;;;;28.86;44.33;100924.53;6281298;22;20341;-77
2023/07/19 05:14:07;;;;;;;13.15;5.03;;;;;;;28.98;43.95;100927.69;6310069;22;20345;-77
2023/07/19 05:16:35;;;;;;;12.13;5.13;;;;;;;29.04;43.63;100919.44;6279094;22;20349;-77
2023/07/19 05:19:01;;;;;;;10.30;4.83;;;;;;;29.01;43.73;100920.03;6306564;22;20361;-76
2023/07/19 05:21:27;;;;;;;10.85;4.32;;;;;;;28.98;43.52;100921.44;6307562;22;20338;-76
2023/07/19 05:23:53;;;;;;;9.13;4.30;;;;;;;29.07;43.24;100927.88;6279056;22;20822;-76
2023/07/19 05:26:18;;;;;;;10.93;3.90;;;;;;;29.09;43.16;100930.31;6306002;22;20357;-76
2023/07/19 05:28:45;;;;;;;10.00;4.60;;;;;;;29.34;42.76;100921.06;6304775;22;20357;-75
2023/07/19 05:31:11;;;;;;;7.40;4.30;;;;;;;29.39;42.52;100922.91;6306706;22;20348;-76
2023/07/19 05:33:36;;;;;;;9.80;4.32;;;;;;;29.41;42.59;100926.19;6274723;22;20428;-75
2023/07/19 05:36:03;;;;;;;10.33;4.53;;;;;;;29.65;42.63;100935.13;6296701;22;20667;-75
2023/07/19 05:38:29;;;;;;;6.88;3.80;;;;;;;29.46;42.41;100948.78;6297508;22;20462;-75
2023/07/19 05:41:01;;;;;;;9.88;3.70;;;;;;;29.24;41.78;100941.09;6298679;22;20345;-77
2023/07/19 05:43:27;;;;;;;6.30;3.80;;;;;;;29.40;41.55;100938.19;6305397;22;20644;-75
2023/07/19 05:45:53;;;;;;;6.53;3.63;;;;;;;29.52;41.29;100931.19;6301847;22;20420;-77
2023/07/19 05:48:18;;;;;;;6.80;3.80;;;;;;;29.63;40.96;100931.88;6302078;22;20809;-76
2023/07/19 05:50:44;;;;;;;7.87;3.77;;;;;;;29.61;41.00;100931.38;6302553;22;20365;-76
2023/07/19 05:53:10;;;;;;;6.63;3.63;;;;;;;29.63;41.00;100931.09;6304310;22;20340;-76
2023/07/19 05:55:36;;;;;;;6.13;3.40;;;;;;;29.67;40.81;100927.44;6304011;22;20334;-76
2023/07/19 05:58:02;;;;;;;9.30;4.33;;;;;;;29.71;41.00;100920.31;6302738;22;20393;-76
2023/07/19 06:00:28;;;;;;;8.33;3.83;;;;;;;29.80;40.78;100917.78;6305001;22;20421;-76
2023/07/19 06:02:55;;;;;;;6.82;3.88;;;;;;;29.84;40.49;100905.13;6276895;22;20433;-77
2023/07/19 06:05:20;;;;;;;6.05;3.80;;;;;;;29.90;40.19;100905.88;6305199;22;20851;-76
2023/07/19 06:07:46;;;;;;;6.45;3.70;;;;;;;29.87;40.43;100893.63;6309398;22;20365;-77
2023/07/19 06:10:13;;;;;;;4.22;3.55;;;;;;;30.00;40.44;100899.44;6305420;22;20342;-77
2023/07/19 06:12:41;;;;;;;9.63;4.23;;;;;;;30.15;40.48;100888.28;6305696;22;20782;-77
2023/07/19 06:15:07;;;;;;;9.98;4.80;;;;;;;30.46;40.42;100888.59;6303635;22;20417;-76
2023/07/19 06:17:33;;;;;;;7.20;4.30;;;;;;;30.93;40.01;100880.38;6272358;22;20377;-76
2023/07/19 06:19:58;;;;;;;7.17;4.00;;;;;;;31.03;39.80;100884.88;6303556;22;20338;-76
2023/07/19 06:22:25;;;;;;;8.53;4.00;;;;;;;30.68;39.01;100884.38;6278167;22;20342;-78
2023/07/19 06:24:50;;;;;;;9.82;3.80;;;;;;;30.49;39.32;100892.69;6301936;22;20354;-76
2023/07/19 06:27:16;;;;;;;5.23;3.57;;;;;;;30.63;39.10;100885.31;6304985;22;20342;-78
2023/07/19 06:29:43;;;;;;;5.05;3.70;;;;;;;30.99;38.73;100879.19;6304974;22;20358;-77
2023/07/19 06:32:08;;;;;;;8.13;4.93;;;;;;;31.18;39.38;100887.28;6306086;22;20334;-77
2023/07/19 06:34:34;;;;;;;10.03;4.87;;;;;;;31.37;39.98;100889.13;6277923;22;20376;-77
2023/07/19 06:37:00;;;;;;;6.75;4.63;;;;;;;31.54;39.58;100896.72;6308260;22;20337;-78
2023/07/19 06:39:25;;;;;;;5.85;3.60;;;;;;;31.41;38.89;100906.56;6282873;22;20341;-78
2023/07/19 06:41:50;;;;;;;5.73;3.80;;;;;;;31.43;38.10;100896.09;6309436;22;20334;-79
2023/07/19 06:44:16;;;;;;;6.87;3.90;;;;;;;31.48;38.26;100901.50;6307472;22;20409;-76
2023/07/19 06:46:41;;;;;;;5.07;4.07;;;;;;;31.48;38.35;100896.03;6307428;22;20338;-77
2023/07/19 06:49:07;;;;;;;7.63;4.23;;;;;;;31.50;38.41;100890.25;6308999;22;20354;-77
2023/07/19 06:51:32;;;;;;;7.57;4.60;;;;;;;31.52;38.58;100888.00;6307409;22;20342;-77
2023/07/19 06:53:58;;;;;;;7.80;4.15;;;;;;;31.69;38.61;100882.66;6307937;22;20714;-77
2023/07/19 06:56:23;;;;;;;9.50;4.38;;;;;;;31.83;38.16;100888.13;6309052;22;20349;-77
2023/07/19 06:58:49;;;;;;;7.80;4.80;;;;;;;31.95;37.91;100885.66;6308128;22;20472;-76
2023/07/19 07:01:14;;;;;;;7.73;4.30;;;;;;;31.86;37.90;100867.53;6309875;22;20369;-76
2023/07/19 07:03:40;;;;;;;5.57;4.40;;;;;;;31.91;38.11;100879.16;6313533;22;20330;-77
2023/07/19 07:06:05;;;;;;;9.03;4.20;;;;;;;31.83;38.16;100874.41;6281139;22;20334;-74
2023/07/19 07:08:32;;;;;;;5.67;4.30;;;;;;;31.95;37.76;100860.16;6307332;22;20357;-76
2023/07/19 07:11:00;;;;;;;8.20;3.97;;;;;;;32.28;37.13;100858.00;6282265;22;20798;-76
2023/07/19 07:13:26;;;;;;;5.80;3.70;;;;;;;32.48;36.48;100867.63;6281261;22;20362;-76
2023/07/19 07:15:51;;;;;;;4.97;4.00;;;;;;;32.35;36.22;100852.06;6308860;22;20342;-77
2023/07/19 07:18:17;;;;;;;5.35;4.00;;;;;;;32.43;36.10;100851.31;6311649;22;20406;-78
2023/07/19 07:20:42;;;;;;;7.80;4.13;;;;;;;32.61;36.22;100843.19;6260863;22;20715;-78
2023/07/19 07:23:08;;;;;;;7.43;4.70;;;;;;;32.75;35.57;100844.72;6310619;22;20406;-77
2023/07/19 07:25:35;;;;;;;7.80;4.27;;;;;;;32.81;35.85;100852.78;6310368;22;20427;-76
2023/07/19 07:28:01;;;;;;;7.93;4.00;;;;;;;33.05;35.76;100849.66;6308042;22;20377;-77
2023/07/19 07:30:27;;;;;;;5.40;3.70;;;;;;;33.15;35.32;100849.38;6307513;22;20342;-77
2023/07/19 07:32:52;;;;;;;8.57;4.43;;;;;;;33.36;35.54;100851.53;6280431;22;20751;-76
2023/07/19 07:35:18;;;;;;;5.70;4.20;;;;;;;33.54;35.38;100858.66;6307194;22;20353;-75
2023/07/19 07:37:44;;;;;;;5.45;4.13;;;;;;;33.58;34.91;100859.63;6308152;22;20363;-75
2023/07/19 07:40:10;;;;;;;6.17;4.40;;;;;;;33.74;35.20;100850.94;6306925;22;20334;-77
2023/07/19 07:42:37;;;;;;;5.65;3.75;;;;;;;33.86;35.00;100849.16;6280085;22;20353;-76
2023/07/19 07:45:04;;;;;;;9.20;4.35;;;;;;;34.01;34.53;100850.56;6308222;22;20362;-77
2023/07/19 07:47:29;;;;;;;6.60;4.35;;;;;;;34.17;33.80;100845.38;6306966;22;20802;-77
2023/07/19 07:49:55;;;;;;;7.80;4.73;;;;;;;34.19;33.74;100840.38;6306174;22;20424;-76
2023/07/19 07:52:21;;;;;;;6.70;4.10;;;;;;;34.26;33.66;100843.44;6306454;22;20698;-76
2023/07/19 07:54:49;;;;;;;7.35;4.10;;;;;;;34.16;33.52;100841.03;6307379;22;20334;-77
2023/07/19 07:57:14;;;;;;;8.40;3.93;;;;;;;34.41;33.05;100830.28;6307193;22;20461;-76
2023/07/19 07:59:41;;;;;;;7.50;4.18;;;;;;;34.11;32.62;100835.69;6308414;22;20330;-76
2023/07/19 08:02:07;;;;;;;6.05;4.28;;;;;;;34.05;32.95;100836.97;6308191;22;20373;-77
2023/07/19 08:04:34;;;;;;;10.30;4.07;;;;;;;34.11;32.59;100832.94;6308672;22;20482;-78
2023/07/19 08:06:59;;;;;;;7.20;4.60;;;;;;;34.36;32.42;100831.28;6307466;22;20340;-77
2023/07/19 08:09:25;;;;;;;11.32;4.70;;;;;;;34.58;32.25;100835.75;6307747;22;20457;-77
2023/07/19 08:11:50;;;;;;;5.87;4.10;;;;;;;34.19;32.65;100825.81;6307120;22;20342;-76
2023/07/19 08:14:16;;;;;;;9.57;4.47;;;;;;;34.26;32.62;100834.38;6279722;22;20874;-76
2023/07/19 08:16:41;;;;;;;8.63;4.50;;;;;;;34.53;32.01;100824.91;6308941;22;20341;-77
2023/07/19 08:19:07;;;;;;;9.20;4.40;;;;;;;34.87;32.18;100819.63;6279154;22;20429;-78
2023/07/19 08:21:32;;;;;;;7.37;4.10;;;;;;;35.05;32.16;100829.38;6300712;22;20334;-78
2023/07/19 08:23:58;;;;;;;6.53;4.07;;;;;;;35.25;32.07;100829.78;6304501;22;20338;-77
2023/07/19 08:26:23;;;;;;;4.97;3.77;;;;;;;35.39;31.80;100833.88;6303180;22;20403;-79
2023/07/19 08:28:49;;;;;;;5.30;3.50;;;;;;;35.60;31.70;100830.28;6303568;22;20358;-76
2023/07/19 08:31:16;;;;;;;4.97;3.60;;;;;;;35.59;31.44;100829.50;6303652;22;20415;-77
2023/07/19 08:33:42;;;;;;;5.60;3.50;;;;;;;35.21;30.25;100822.16;6276186;22;20338;-78
2023/07/19 08:36:07;;;;;;;5.57;3.60;;;;;;;35.41;30.51;100820.56;6275274;22;20433;-75
2023/07/19 08:38:33;;;;;;;7.70;3.87;;;;;;;35.26;29.78;100814.84;6301970;22;20414;-76
2023/07/19 08:41:08;;;;;;;9.50;3.80;;;;;;;35.31;29.91;100818.22;6307037;22;20789;-76
2023/07/19 08:43:37;;;;;;;5.50;3.97;;;;;;;35.49;30.27;100807.03;6306605;22;20334;-77
2023/07/19 08:46:03;;;;;;;7.95;3.97;;;;;;;35.68;30.53;100804.59;6308391;22;20414;-77
2023/07/19 08:48:31;;;;;;;8.32;4.00;;;;;;;35.81;30.74;100804.69;6309464;22;20362;-77
2023/07/19 08:51:00;;;;;;;6.38;3.80;;;;;;;36.00;31.06;100802.22;6279095;22;20349;-76
2023/07/19 08:53:26;;;;;;;9.77;4.40;;;;;;;36.16;30.82;100792.13;6310859;22;20349;-76
2023/07/19 08:55:53;;;;;;;6.82;4.60;;;;;;;36.30;30.80;100805.66;6306337;22;20377;-77
2023/07/19 08:58:19;;;;;;;7.07;4.47;;;;;;;36.45;30.56;100795.88;6305099;22;20366;-77
2023/07/19 09:00:49;;;;;;;6.95;4.10;;;;;;;36.51;30.32;100808.31;6305510;22;20357;-76
2023/07/19 09:03:18;;;;;;;8.95;4.30;;;;;;;36.46;30.02;100788.41;6278692;22;20862;-76
2023/07/19 09:05:45;;;;;;;6.18;3.92;;;;;;;36.51;30.16;100794.50;6279287;22;20342;-77
2023/07/19 09:08:14;;;;;;;11.13;4.50;;;;;;;36.58;30.46;100790.38;6306017;22;20370;-77
2023/07/19 09:10:45;;;;;;;6.28;4.25;;;;;;;36.63;30.01;100787.38;6307881;22;20365;-76
2023/07/19 09:13:10;;;;;;;7.53;4.05;;;;;;;36.55;29.84;100778.88;6307722;22;20849;-76
2023/07/19 09:15:36;;;;;;;11.93;4.45;;;;;;;36.81;30.01;100771.41;6305057;22;20446;-75
2023/07/19 09:18:06;;;;;;;20.33;5.75;;;;;;;36.86;29.43;100760.91;6304499;22;20348;-75
2023/07/19 09:20:37;;;;;;;7.10;4.03;;;;;;;36.96;29.55;100769.88;6305557;22;20365;-77
2023/07/19 09:23:08;;;;;;;4.43;3.65;;;;;;;36.92;28.83;100761.47;6306163;22;20705;-76
2023/07/19 09:25:51;;;;;;;8.40;3.83;;;;;;;37.03;29.08;100764.56;6305918;22;20645;-76
2023/07/19 09:28:26;;;;;;;5.60;3.10;;;;;;;37.02;28.45;100760.19;6305585;22;20357;-76
2023/07/19 09:30:58;;;;;;;6.50;3.22;;;;;;;37.09;27.39;100758.44;6305449;22;20354;-76
2023/07/19 09:33:26;;;;;;;5.63;3.20;;;;;;;37.15;27.41;100760.94;6305551;22;20370;-77
2023/07/19 09:35:56;;;;;;;5.72;3.20;;;;;;;37.22;27.45;100753.72;6308059;22;20795;-77
2023/07/19 09:38:22;;;;;;;4.33;3.27;;;;;;;37.35;27.86;100759.19;6305907;22;20738;-76
2023/07/19 09:40:52;;;;;;;9.20;3.30;;;;;;;37.36;27.13;100753.31;6306487;22;20342;-77
2023/07/19 09:43:19;;;;;;;6.90;3.30;;;;;;;37.37;27.80;100752.16;6306239;22;20821;-75
2023/07/19 09:45:47;;;;;;;5.47;3.10;;;;;;;37.56;27.15;100743.19;6305392;22;20334;-75
2023/07/19 09:48:17;;;;;;;6.18;3.20;;;;;;;37.70;27.09;100736.47;6305862;22;20454;-75
2023/07/19 09:50:42;;;;;;;5.43;3.00;;;;;;;37.69;26.98;100727.41;6279623;22;20873;-76
2023/07/19 09:53:11;;;;;;;5.32;2.65;;;;;;;37.68;26.26;100737.63;6306912;22;20361;-77
2023/07/19 09:55:37;;;;;;;3.70;3.10;;;;;;;37.65;26.85;100730.06;6279386;22;20370;-76
2023/07/19 09:58:06;;;;;;;4.40;3.03;;;;;;;37.75;26.66;100725.97;6306549;22;20441;-75
2023/07/19 10:00:32;;;;;;;4.88;2.80;;;;;;;37.81;26.74;100729.25;6306715;22;20779;-75
2023/07/19 10:03:01;;;;;;;6.68;3.20;;;;;;;37.73;26.61;100724.72;6279082;22;20467;-78
2023/07/19 10:05:30;;;;;;;4.22;3.00;;;;;;;37.61;27.11;100725.56;6306738;22;20337;-78
2023/07/19 10:08:04;;;;;;;4.57;3.35;;;;;;;37.58;27.15;100720.72;6281323;22;20341;-79
2023/07/19 10:10:40;;;;;;;6.55;3.40;;;;;;;37.77;27.05;100726.41;6310056;22;20338;-77
2023/07/19 10:13:06;;;;;;;7.60;3.13;;;;;;;37.83;27.16;100726.94;6311965;22;20337;-76
2023/07/19 10:15:34;;;;;;;5.22;3.20;;;;;;;37.82;27.01;100714.28;6308725;22;20418;-76
2023/07/19 10:18:00;;;;;;;4.07;3.47;;;;;;;37.77;26.95;100715.34;6309732;22;20809;-77
2023/07/19 10:20:34;;;;;;;6.32;3.65;;;;;;;37.74;26.65;100718.00;6282607;22;20833;-78
2023/07/19 10:23:03;;;;;;;7.35;4.38;;;;;;;37.75;26.51;100717.66;6310582;22;20344;-78
2023/07/19 10:25:34;;;;;;;6.33;3.47;;;;;;;37.68;26.62;100720.25;6310653;22;20341;-77
2023/07/19 10:28:10;;;;;;;6.20;3.30;;;;;;;37.74;27.21;100712.47;6281354;22;20342;-74
2023/07/19 10:30:42;;;;;;;4.60;3.47;;;;;;;37.75;26.72;100706.59;6307915;22;20683;-76
2023/07/19 10:33:08;;;;;;;4.40;3.30;;;;;;;37.90;26.72;100709.72;6308358;22;20388;-76
2023/07/19 10:35:34;;;;;;;5.60;3.30;;;;;;;37.88;26.53;100699.81;6307584;22;20745;-75
2023/07/19 10:37:59;;;;;;;6.50;3.30;;;;;;;37.91;26.34;100700.28;6306907;22;20736;-77
2023/07/19 10:40:25;;;;;;;8.13;3.67;;;;;;;37.90;26.35;100693.91;6280776;22;20352;-77
2023/07/19 10:42:50;;;;;;;5.20;3.60;;;;;;;37.96;26.75;100705.53;6310143;22;20338;-78
2023/07/19 10:45:16;;;;;;;4.90;3.80;;;;;;;38.09;26.82;100695.19;6312082;22;20424;-77
2023/07/19 10:47:41;;;;;;;5.10;3.10;;;;;;;37.82;27.04;100697.69;6306876;22;20463;-77
2023/07/19 10:50:08;;;;;;;5.00;3.30;;;;;;;37.87;26.63;100692.69;6279765;22;20370;-75
2023/07/19 10:52:34;;;;;;;5.03;3.27;;;;;;;38.01;26.54;100683.13;6307750;22;20372;-75
2023/07/19 10:54:59;;;;;;;6.57;3.10;;;;;;;38.09;26.22;100684.13;6310380;22;20350;-76
2023/07/19 10:57:27;;;;;;;5.30;3.30;;;;;;;38.08;26.56;100671.44;6307883;22;20377;-77
2023/07/19 10:59:53;;;;;;;5.50;3.25;;;;;;;38.17;26.57;100683.94;6307355;22;20338;-76
2023/07/19 11:02:19;;;;;;;6.00;3.40;;;;;;;38.25;26.41;100680.19;6311400;22;20338;-78
2023/07/19 11:04:48;;;;;;;6.57;3.35;;;;;;;38.25;26.63;100677.41;6307333;22;20720;-76
2023/07/19 11:07:14;;;;;;;7.10;3.43;;;;;;;38.41;26.40;100674.63;6309352;22;20417;-77
2023/07/19 11:09:48;;;;;;;10.97;3.90;;;;;;;37.99;27.22;100669.63;6306939;22;20397;-75
2023/07/19 11:12:14;;;;;;;11.85;4.25;;;;;;;38.30;26.66;100679.09;6305430;22;20338;-76
2023/07/19 11:14:56;;;;;;;6.50;4.07;;;;;;;38.43;25.81;100668.72;6305370;22;20340;-76
2023/07/19 11:17:29;;;;;;;7.32;4.03;;;;;;;38.36;25.37;100674.91;6304886;22;20440;-75
2023/07/19 11:19:59;;;;;;;8.75;4.60;;;;;;;38.52;25.19;100668.50;6306120;22;20345;-77
2023/07/19 11:22:26;;;;;;;7.70;4.20;;;;;;;38.70;25.90;100671.69;6306623;22;20876;-75